createdAt,value
2023-04-04T00:00:51.401Z,56.71
2023-04-04T00:01:53.279Z,57.31
2023-04-04T00:02:55.167Z,56.52
2023-04-04T00:03:57.888Z,56.80
2023-04-04T00:05:00.006Z,56.10
2023-04-04T00:06:01.785Z,57.37
2023-04-04T00:07:03.586Z,57.53
2023-04-04T00:08:05.568Z,58.22
2023-04-04T00:09:08.340Z,57.90
2023-04-04T00:10:10.249Z,57.26
2023-04-04T00:11:12.112Z,58.05
2023-04-04T00:12:13.992Z,57.65
2023-04-04T00:13:15.831Z,58.34
2023-04-04T00:14:18.120Z,58.51
2023-04-04T00:15:19.956Z,58.42
2023-04-04T00:16:22.762Z,58.09
2023-04-04T00:17:24.602Z,58.29
2023-04-04T00:18:26.669Z,58.91
2023-04-04T00:19:28.566Z,58.45
2023-04-04T00:20:31.173Z,58.03
2023-04-04T00:21:32.942Z,57.77
2023-04-04T00:22:34.862Z,58.63
2023-04-04T00:23:37.236Z,58.15
2023-04-04T00:24:39.409Z,57.71
2023-04-04T00:25:41.334Z,58.46
2023-04-04T00:26:43.180Z,58.12
2023-04-04T00:27:44.946Z,58.40
2023-04-04T00:28:46.880Z,57.91
2023-04-04T00:29:48.779Z,58.42
2023-04-04T00:30:50.611Z,58.26
2023-04-04T00:31:52.585Z,58.13
2023-04-04T00:32:54.497Z,57.83
2023-04-04T00:33:56.452Z,57.99
2023-04-04T00:34:58.401Z,58.54
2023-04-04T00:36:00.254Z,58.25
2023-04-04T00:37:02.235Z,58.17
2023-04-04T00:38:04.487Z,58.67
2023-04-04T00:39:06.625Z,56.26
2023-04-04T00:40:08.935Z,56.34
2023-04-04T00:41:11.674Z,55.36
2023-04-04T00:42:13.532Z,56.36
2023-04-04T00:43:16.828Z,55.22
2023-04-04T00:44:18.866Z,56.56
2023-04-04T00:45:20.738Z,55.13
2023-04-04T00:46:23.585Z,55.97
2023-04-04T00:47:26.299Z,54.94
2023-04-04T00:48:28.774Z,55.96
2023-04-04T00:49:30.650Z,55.99
2023-04-04T00:50:33.067Z,56.95
2023-04-04T00:51:34.817Z,56.80
2023-04-04T00:52:37.561Z,56.60
2023-04-04T00:53:39.870Z,56.82
2023-04-04T00:54:41.758Z,56.71
2023-04-04T00:55:44.355Z,56.39
2023-04-04T00:56:46.704Z,55.63
2023-04-04T00:57:48.798Z,56.48
2023-04-04T00:58:50.817Z,55.47
2023-04-04T00:59:52.735Z,55.61
2023-04-04T01:00:54.630Z,55.55
2023-04-04T01:01:56.755Z,55.88
2023-04-04T01:02:58.567Z,56.10
2023-04-04T01:04:00.587Z,56.88
2023-04-04T01:05:03.842Z,55.81
2023-04-04T01:06:07.224Z,55.77
2023-04-04T01:07:09.420Z,56.27
2023-04-04T01:08:12.077Z,56.06
2023-04-04T01:09:14.074Z,55.64
2023-04-04T01:10:15.878Z,55.69
2023-04-04T01:11:18.211Z,55.31
2023-04-04T01:12:20.030Z,56.12
2023-04-04T01:13:22.338Z,56.78
2023-04-04T01:14:24.436Z,55.92
2023-04-04T01:15:26.716Z,56.69
2023-04-04T01:16:28.597Z,56.57
2023-04-04T01:17:30.599Z,55.09
2023-04-04T01:18:34.042Z,56.12
2023-04-04T01:19:37.429Z,55.38
2023-04-04T01:20:42.665Z,55.49
2023-04-04T01:21:46.834Z,56.71
2023-04-04T01:22:50.921Z,56.82
2023-04-04T01:23:55.503Z,57.46
2023-04-04T01:24:58.722Z,56.70
2023-04-04T01:26:02.138Z,57.17
2023-04-04T01:27:03.985Z,57.46
2023-04-04T01:28:05.811Z,57.19
2023-04-04T01:29:07.634Z,56.98
2023-04-04T01:30:10.670Z,56.92
2023-04-04T01:31:14.528Z,57.58
2023-04-04T01:32:36.690Z,56.97
2023-04-04T01:33:43.498Z,56.94
2023-04-04T01:34:57.730Z,58.29
2023-04-04T01:36:05.873Z,58.05
2023-04-04T01:37:11.196Z,57.24
2023-04-04T01:38:27.752Z,57.92
2023-04-04T01:39:35.853Z,54.86
2023-04-04T01:40:38.762Z,55.38
2023-04-04T01:41:41.287Z,55.37
2023-04-04T01:42:44.618Z,56.61
2023-04-04T01:43:46.933Z,57.13
2023-04-04T01:44:54.514Z,57.30
2023-04-04T01:45:56.445Z,56.93
2023-04-04T01:46:58.255Z,57.27
2023-04-04T01:48:00.166Z,56.36
2023-04-04T01:49:01.966Z,57.00
2023-04-04T01:50:03.896Z,56.46
2023-04-04T01:51:06.901Z,57.10
2023-04-04T01:52:09.720Z,57.44
2023-04-04T01:53:11.544Z,57.23
2023-04-04T01:54:13.626Z,56.67
2023-04-04T01:55:15.507Z,56.79
2023-04-04T01:56:17.362Z,57.18
2023-04-04T01:57:19.272Z,56.75
2023-04-04T01:58:21.251Z,56.68
2023-04-04T01:59:23.126Z,56.29
2023-04-04T02:00:25.029Z,56.96
2023-04-04T02:01:26.871Z,57.18
2023-04-04T02:02:28.729Z,57.65
2023-04-04T02:03:30.950Z,58.20
2023-04-04T02:04:32.783Z,57.82
2023-04-04T02:05:34.660Z,57.16
2023-04-04T02:06:36.500Z,57.71
2023-04-04T02:07:38.475Z,57.71
2023-04-04T02:08:40.349Z,57.19
2023-04-04T02:09:42.082Z,57.52
2023-04-04T02:10:43.895Z,57.39
2023-04-04T02:11:45.769Z,57.26
2023-04-04T02:12:47.592Z,58.14
2023-04-04T02:13:50.009Z,57.72
2023-04-04T02:14:51.721Z,57.87
2023-04-04T02:15:56.514Z,58.17
2023-04-04T02:16:58.927Z,58.19
2023-04-04T02:18:01.865Z,58.20
2023-04-04T02:19:04.207Z,58.20
2023-04-04T02:20:07.228Z,58.64
2023-04-04T02:21:09.012Z,58.21
2023-04-04T02:22:10.928Z,58.47
2023-04-04T02:23:12.665Z,58.70
2023-04-04T02:24:14.390Z,57.99
2023-04-04T02:25:16.358Z,58.24
2023-04-04T02:26:18.238Z,59.14
2023-04-04T02:27:20.205Z,58.81
2023-04-04T02:28:23.001Z,58.62
2023-04-04T02:29:24.798Z,58.87
2023-04-04T02:30:27.536Z,58.93
2023-04-04T02:31:29.377Z,58.27
2023-04-04T02:32:31.211Z,58.13
2023-04-04T02:33:33.141Z,58.18
2023-04-04T02:34:35.040Z,59.05
2023-04-04T02:35:36.925Z,58.56
2023-04-04T02:36:38.651Z,59.04
2023-04-04T02:37:40.428Z,58.84
2023-04-04T02:38:42.363Z,58.89
2023-04-04T02:39:44.159Z,58.98
2023-04-04T02:40:46.038Z,59.10
2023-04-04T02:41:47.876Z,57.81
2023-04-04T02:42:49.670Z,57.98
2023-04-04T02:43:51.951Z,58.83
2023-04-04T02:44:53.785Z,57.95
2023-04-04T02:45:55.551Z,58.59
2023-04-04T02:46:57.956Z,58.37
2023-04-04T02:47:59.809Z,58.85
2023-04-04T02:49:02.337Z,58.60
2023-04-04T02:50:04.272Z,58.70
2023-04-04T02:51:06.026Z,59.45
2023-04-04T02:52:08.531Z,58.80
2023-04-04T02:53:10.349Z,58.04
2023-04-04T02:54:12.166Z,58.92
2023-04-04T02:55:14.020Z,58.74
2023-04-04T02:56:15.811Z,58.11
2023-04-04T02:57:17.603Z,57.54
2023-04-04T02:58:19.488Z,58.92
2023-04-04T02:59:21.461Z,58.54
2023-04-04T03:00:23.387Z,58.41
2023-04-04T03:01:25.173Z,58.33
2023-04-04T03:02:28.560Z,57.80
2023-04-04T03:03:30.916Z,58.64
2023-04-04T03:04:33.120Z,59.27
2023-04-04T03:05:35.059Z,58.70
2023-04-04T03:06:37.828Z,58.33
2023-04-04T03:07:39.577Z,58.83
2023-04-04T03:08:41.647Z,59.25
2023-04-04T03:09:45.389Z,58.39
2023-04-04T03:10:47.544Z,59.09
2023-04-04T03:11:50.113Z,58.25
2023-04-04T03:12:52.016Z,58.21
2023-04-04T03:13:55.824Z,57.72
2023-04-04T03:14:57.732Z,58.55
2023-04-04T03:16:03.724Z,57.98
2023-04-04T03:17:06.591Z,58.09
2023-04-04T03:18:08.647Z,58.19
2023-04-04T03:19:10.885Z,58.71
2023-04-04T03:20:13.330Z,58.37
2023-04-04T03:21:15.243Z,58.53
2023-04-04T03:22:17.155Z,58.82
2023-04-04T03:23:18.958Z,58.62
2023-04-04T03:24:20.734Z,57.18
2023-04-04T03:25:22.548Z,57.70
2023-04-04T03:26:24.392Z,58.91
2023-04-04T03:27:26.952Z,58.88
2023-04-04T03:28:29.548Z,57.93
2023-04-04T03:29:31.369Z,58.21
2023-04-04T03:30:33.092Z,58.55
2023-04-04T03:31:34.945Z,57.74
2023-04-04T03:32:37.491Z,57.64
2023-04-04T03:33:39.873Z,58.00
2023-04-04T03:34:41.705Z,57.27
2023-04-04T03:35:43.512Z,56.72
2023-04-04T03:36:47.125Z,56.81
2023-04-04T03:37:48.905Z,56.48
2023-04-04T03:38:51.139Z,56.51
2023-04-04T03:39:52.916Z,56.60
2023-04-04T03:41:05.380Z,57.17
2023-04-04T03:42:07.192Z,56.12
2023-04-04T03:43:09.028Z,56.13
2023-04-04T03:44:10.923Z,57.42
2023-04-04T03:45:12.779Z,57.72
2023-04-04T03:46:14.678Z,57.72
2023-04-04T03:47:16.552Z,57.42
2023-04-04T03:48:18.364Z,57.31
2023-04-04T03:49:20.186Z,57.33
2023-04-04T03:50:22.119Z,57.84
2023-04-04T03:51:25.203Z,58.01
2023-04-04T03:52:26.968Z,57.85
2023-04-04T03:53:28.928Z,57.06
2023-04-04T03:54:30.766Z,57.91
2023-04-04T03:55:33.910Z,57.40
2023-04-04T03:56:36.247Z,58.06
2023-04-04T03:57:38.354Z,58.12
2023-04-04T03:58:40.162Z,58.12
2023-04-04T03:59:42.434Z,58.67
2023-04-04T04:00:44.315Z,57.85
2023-04-04T04:01:46.157Z,58.74
2023-04-04T04:02:48.260Z,58.28
2023-04-04T04:03:50.216Z,57.94
2023-04-04T04:04:52.150Z,58.50
2023-04-04T04:05:53.903Z,57.88
2023-04-04T04:06:56.290Z,58.33
2023-04-04T04:07:58.142Z,58.96
2023-04-04T04:08:59.925Z,58.61
2023-04-04T04:10:01.787Z,59.04
2023-04-04T04:11:08.125Z,59.08
2023-04-04T04:12:10.053Z,58.15
2023-04-04T04:13:11.846Z,58.52
2023-04-04T04:14:13.718Z,58.86
2023-04-04T04:15:15.525Z,58.26
2023-04-04T04:16:17.578Z,59.33
2023-04-04T04:17:20.085Z,59.41
2023-04-04T04:18:22.054Z,58.19
2023-04-04T04:19:23.932Z,59.30
2023-04-04T04:20:25.872Z,59.00
2023-04-04T04:21:27.704Z,59.02
2023-04-04T04:22:29.444Z,58.51
2023-04-04T04:23:31.576Z,59.21
2023-04-04T04:24:33.354Z,59.02
2023-04-04T04:25:35.127Z,58.29
2023-04-04T04:26:36.933Z,59.52
2023-04-04T04:27:39.065Z,60.03
2023-04-04T04:28:40.897Z,59.15
2023-04-04T04:29:43.237Z,60.17
2023-04-04T04:30:45.046Z,59.68
2023-04-04T04:31:46.832Z,60.01
2023-04-04T04:32:49.595Z,59.97
2023-04-04T04:33:51.859Z,59.25
2023-04-04T04:34:53.635Z,59.62
2023-04-04T04:36:01.548Z,58.93
2023-04-04T04:37:03.573Z,59.40
2023-04-04T04:38:05.568Z,60.05
2023-04-04T04:39:07.325Z,59.71
2023-04-04T04:40:09.567Z,59.87
2023-04-04T04:41:11.346Z,60.55
2023-04-04T04:42:13.148Z,60.61
2023-04-04T04:43:15.010Z,60.08
2023-04-04T04:44:16.816Z,59.43
2023-04-04T04:45:18.573Z,60.18
2023-04-04T04:46:20.358Z,59.59
2023-04-04T04:47:22.156Z,59.78
2023-04-04T04:48:23.962Z,59.48
2023-04-04T04:49:25.959Z,60.41
2023-04-04T04:50:27.752Z,60.42
2023-04-04T04:51:29.572Z,60.81
2023-04-04T04:52:32.392Z,60.71
2023-04-04T04:53:34.161Z,60.82
2023-04-04T04:54:35.986Z,60.47
2023-04-04T04:55:37.853Z,60.53
2023-04-04T04:56:39.663Z,61.00
2023-04-04T04:57:41.549Z,61.58
2023-04-04T04:58:45.327Z,62.22
2023-04-04T04:59:47.239Z,62.76
2023-04-04T05:00:49.093Z,61.90
2023-04-04T05:01:50.895Z,62.53
2023-04-04T05:02:55.078Z,62.55
2023-04-04T05:03:56.911Z,62.36
2023-04-04T05:04:58.729Z,62.24
2023-04-04T05:06:00.496Z,63.09
2023-04-04T05:07:02.628Z,62.67
2023-04-04T05:08:04.737Z,63.12
2023-04-04T05:09:06.600Z,62.61
2023-04-04T05:10:08.618Z,63.08
2023-04-04T05:11:10.485Z,63.47
2023-04-04T05:12:12.333Z,63.00
2023-04-04T05:13:14.317Z,62.27
2023-04-04T05:14:16.183Z,62.42
2023-04-04T05:15:17.978Z,63.32
2023-04-04T05:16:20.843Z,63.55
2023-04-04T05:17:23.749Z,62.60
2023-04-04T05:18:26.782Z,63.22
2023-04-04T05:19:28.699Z,63.94
2023-04-04T05:20:30.503Z,62.96
2023-04-04T05:21:32.320Z,63.77
2023-04-04T05:22:34.225Z,63.19
2023-04-04T05:23:36.023Z,62.82
2023-04-04T05:24:38.006Z,63.77
2023-04-04T05:25:39.849Z,63.50
2023-04-04T05:26:41.708Z,63.84
2023-04-04T05:27:47.743Z,63.27
2023-04-04T05:28:49.542Z,62.67
2023-04-04T05:29:51.917Z,63.53
2023-04-04T05:30:54.017Z,63.31
2023-04-04T05:31:56.198Z,63.05
2023-04-04T05:32:58.270Z,62.83
2023-04-04T05:34:08.271Z,62.70
2023-04-04T05:35:10.156Z,63.40
2023-04-04T05:36:13.356Z,63.56
2023-04-04T05:37:15.231Z,63.55
2023-04-04T05:38:17.168Z,62.78
2023-04-04T05:39:19.784Z,63.63
2023-04-04T05:40:21.619Z,63.96
2023-04-04T05:41:24.106Z,63.67
2023-04-04T05:42:25.911Z,64.31
2023-04-04T05:43:28.006Z,64.10
2023-04-04T05:44:29.690Z,65.01
2023-04-04T05:45:32.142Z,65.15
2023-04-04T05:46:34.058Z,64.91
2023-04-04T05:47:35.998Z,65.98
2023-04-04T05:48:37.874Z,66.06
2023-04-04T05:49:39.664Z,65.33
2023-04-04T05:50:45.359Z,65.54
2023-04-04T05:51:47.574Z,66.23
2023-04-04T05:52:49.476Z,65.79
2023-04-04T05:53:51.350Z,65.26
2023-04-04T05:54:53.146Z,65.17
2023-04-04T05:55:55.005Z,65.24
2023-04-04T05:56:57.216Z,66.02
2023-04-04T05:57:58.994Z,65.84
2023-04-04T05:59:01.302Z,66.13
2023-04-04T06:00:03.951Z,65.66
2023-04-04T06:01:11.606Z,65.84
2023-04-04T06:02:13.698Z,66.01
2023-04-04T06:03:17.462Z,65.95
2023-04-04T06:04:20.221Z,64.98
2023-04-04T06:05:22.015Z,66.25
2023-04-04T06:06:24.282Z,65.68
2023-04-04T06:07:26.496Z,65.54
2023-04-04T06:08:28.212Z,65.24
2023-04-04T06:09:30.094Z,65.59
2023-04-04T06:10:31.951Z,65.85
2023-04-04T06:11:34.242Z,65.72
2023-04-04T06:12:36.153Z,66.20
2023-04-04T06:13:37.971Z,65.99
2023-04-04T06:14:39.746Z,65.96
2023-04-04T06:15:41.768Z,65.75
2023-04-04T06:16:43.675Z,65.04
2023-04-04T06:17:45.759Z,63.77
2023-04-04T06:18:47.669Z,64.31
2023-04-04T06:19:49.522Z,65.33
2023-04-04T06:20:51.558Z,64.39
2023-04-04T06:21:53.344Z,64.86
2023-04-04T06:22:55.530Z,64.28
2023-04-04T06:23:57.786Z,64.25
2023-04-04T06:24:59.583Z,64.19
2023-04-04T06:26:01.293Z,65.04
2023-04-04T06:27:03.017Z,64.44
2023-04-04T06:28:04.953Z,65.15
2023-04-04T06:29:06.746Z,65.28
2023-04-04T06:30:11.460Z,64.65
2023-04-04T06:31:13.727Z,64.40
2023-04-04T06:32:16.210Z,64.40
2023-04-04T06:33:17.924Z,63.95
2023-04-04T06:34:21.642Z,63.69
2023-04-04T06:35:23.444Z,63.70
2023-04-04T06:36:25.316Z,64.64
2023-04-04T06:37:27.136Z,64.65
2023-04-04T06:38:30.086Z,64.55
2023-04-04T06:39:32.065Z,63.85
2023-04-04T06:40:33.828Z,63.82
2023-04-04T06:41:35.539Z,63.86
2023-04-04T06:42:37.495Z,63.62
2023-04-04T06:43:39.250Z,64.11
2023-04-04T06:44:41.087Z,62.90
2023-04-04T06:45:42.929Z,63.42
2023-04-04T06:46:44.853Z,63.05
2023-04-04T06:47:46.999Z,63.13
2023-04-04T06:48:49.045Z,62.70
2023-04-04T06:49:50.903Z,62.32
2023-04-04T06:50:52.704Z,62.58
2023-04-04T06:51:54.532Z,62.38
2023-04-04T06:52:57.616Z,62.74
2023-04-04T06:54:01.308Z,61.90
2023-04-04T06:55:03.282Z,62.83
2023-04-04T06:56:05.208Z,62.51
2023-04-04T06:57:07.009Z,60.70
2023-04-04T06:58:08.877Z,61.08
2023-04-04T06:59:12.658Z,61.19
2023-04-04T07:00:14.897Z,61.26
2023-04-04T07:01:16.686Z,60.50
2023-04-04T07:02:18.595Z,60.54
2023-04-04T07:03:20.549Z,60.88
2023-04-04T07:04:22.293Z,59.46
2023-04-04T07:05:24.113Z,59.51
2023-04-04T07:06:27.230Z,60.14
2023-04-04T07:07:30.290Z,59.96
2023-04-04T07:08:36.197Z,58.60
2023-04-04T07:09:38.987Z,58.44
2023-04-04T07:10:41.667Z,58.75
2023-04-04T07:11:43.410Z,57.81
2023-04-04T07:12:45.118Z,57.48
2023-04-04T07:13:46.891Z,57.86
2023-04-04T07:14:48.605Z,57.33
2023-04-04T07:15:50.835Z,56.50
2023-04-04T07:16:52.870Z,56.67
2023-04-04T07:17:54.941Z,53.88
2023-04-04T07:18:56.867Z,54.83
2023-04-04T07:19:58.711Z,54.62
2023-04-04T07:21:01.107Z,54.00
2023-04-04T07:22:02.956Z,54.56
2023-04-04T07:23:04.762Z,52.64
2023-04-04T07:24:06.536Z,51.13
2023-04-04T07:25:08.815Z,51.37
2023-04-04T07:26:11.036Z,51.95
2023-04-04T07:27:15.455Z,52.48
2023-04-04T07:28:17.629Z,52.44
2023-04-04T07:29:19.457Z,53.43
2023-04-04T07:30:22.892Z,53.82
2023-04-04T07:31:24.761Z,53.42
2023-04-04T07:32:26.647Z,50.33
2023-04-04T07:33:28.644Z,51.87
2023-04-04T07:34:30.521Z,52.13
2023-04-04T07:35:32.299Z,51.30
2023-04-04T07:36:34.219Z,52.02
2023-04-04T07:37:39.046Z,52.88
2023-04-04T07:38:40.847Z,52.90
2023-04-04T07:39:42.670Z,52.54
2023-04-04T07:40:44.473Z,50.65
2023-04-04T07:41:46.388Z,51.55
2023-04-04T07:42:51.407Z,50.93
2023-04-04T07:43:53.228Z,49.39
2023-04-04T07:44:55.333Z,49.81
2023-04-04T07:45:57.224Z,48.68
2023-04-04T07:47:09.328Z,49.60
2023-04-04T07:48:12.321Z,50.02
2023-04-04T07:49:14.175Z,51.99
2023-04-04T07:50:16.855Z,52.40
2023-04-04T07:51:19.201Z,51.92
2023-04-04T07:52:21.200Z,50.77
2023-04-04T07:53:23.025Z,49.46
2023-04-04T07:54:25.258Z,49.73
2023-04-04T07:55:27.366Z,50.47
2023-04-04T07:56:29.273Z,51.51
2023-04-04T07:57:33.277Z,50.95
2023-04-04T07:58:35.648Z,50.42
2023-04-04T07:59:38.233Z,49.72
2023-04-04T08:00:42.163Z,51.35
2023-04-04T08:01:46.200Z,49.67
2023-04-04T08:02:59.272Z,49.58
2023-04-04T08:04:01.362Z,50.83
2023-04-04T08:05:03.345Z,50.49
2023-04-04T08:06:05.356Z,49.87
2023-04-04T08:07:07.112Z,48.54
2023-04-04T08:08:09.023Z,49.51
2023-04-04T08:09:10.858Z,48.58
2023-04-04T08:10:13.333Z,47.89
2023-04-04T08:11:15.229Z,48.16
2023-04-04T08:12:17.010Z,47.28
2023-04-04T08:13:18.748Z,49.82
2023-04-04T08:14:20.788Z,49.24
2023-04-04T08:15:22.674Z,48.12
2023-04-04T08:16:24.499Z,49.21
2023-04-04T08:17:26.305Z,50.47
2023-04-04T08:18:28.569Z,50.10
2023-04-04T08:19:30.351Z,48.70
2023-04-04T08:20:32.251Z,48.29
2023-04-04T08:21:34.176Z,50.87
2023-04-04T08:22:36.267Z,50.26
2023-04-04T08:23:38.046Z,49.70
2023-04-04T08:24:39.823Z,50.40
2023-04-04T08:25:41.564Z,51.01
2023-04-04T08:26:48.995Z,50.06
2023-04-04T08:27:53.559Z,48.58
2023-04-04T08:28:55.537Z,49.49
2023-04-04T08:29:57.414Z,48.97
2023-04-04T08:30:59.138Z,49.03
2023-04-04T08:32:01.340Z,47.16
2023-04-04T08:33:05.444Z,46.64
2023-04-04T08:34:08.776Z,46.81
2023-04-04T08:35:10.921Z,46.96
2023-04-04T08:36:12.717Z,47.65
2023-04-04T08:37:15.030Z,47.32
2023-04-04T08:38:17.348Z,46.83
2023-04-04T08:39:19.172Z,46.88
2023-04-04T08:40:21.232Z,46.11
2023-04-04T08:41:23.142Z,46.48
2023-04-04T08:42:25.479Z,47.67
2023-04-04T08:43:27.597Z,46.79
2023-04-04T08:44:30.269Z,49.18
2023-04-04T08:45:33.601Z,47.70
2023-04-04T08:46:35.682Z,48.94
2023-04-04T08:47:38.148Z,48.79
2023-04-04T08:48:42.076Z,48.52
2023-04-04T08:49:44.872Z,47.81
2023-04-04T08:50:47.148Z,47.88
2023-04-04T08:51:49.728Z,48.13
2023-04-04T08:52:53.087Z,48.40
2023-04-04T08:53:56.059Z,48.10
2023-04-04T08:54:58.576Z,48.21
2023-04-04T08:56:00.624Z,48.24
2023-04-04T08:57:02.846Z,47.99
2023-04-04T08:58:05.165Z,47.64
2023-04-04T08:59:07.256Z,49.12
2023-04-04T09:00:10.211Z,48.09
2023-04-04T09:01:12.541Z,48.58
2023-04-04T09:02:17.545Z,46.77
2023-04-04T09:03:31.280Z,48.32
2023-04-04T09:04:33.689Z,49.07
2023-04-04T09:05:35.762Z,48.02
2023-04-04T09:06:37.718Z,46.98
2023-04-04T09:07:39.990Z,47.79
2023-04-04T09:08:42.528Z,49.37
2023-04-04T09:09:47.758Z,47.53
2023-04-04T09:10:49.607Z,47.11
2023-04-04T09:11:52.507Z,47.67
2023-04-04T09:12:59.493Z,47.31
2023-04-04T09:14:07.439Z,47.71
2023-04-04T09:15:10.145Z,47.87
2023-04-04T09:16:11.940Z,49.05
2023-04-04T09:17:13.922Z,47.21
2023-04-04T09:18:16.039Z,48.34
2023-04-04T09:19:17.866Z,49.03
2023-04-04T09:20:34.987Z,47.92
2023-04-04T09:21:37.496Z,47.69
2023-04-04T09:22:44.990Z,47.89
2023-04-04T09:23:46.773Z,48.15
2023-04-04T09:24:50.860Z,48.70
2023-04-04T09:26:03.650Z,49.38
2023-04-04T09:27:07.371Z,48.84
2023-04-04T09:28:09.162Z,48.96
2023-04-04T09:29:11.250Z,49.47
2023-04-04T09:30:13.165Z,49.18
2023-04-04T09:31:15.539Z,48.17
2023-04-04T09:32:17.569Z,48.03
2023-04-04T09:33:21.754Z,48.49
2023-04-04T09:34:23.624Z,49.03
2023-04-04T09:35:27.566Z,48.66
2023-04-04T09:36:29.332Z,47.20
2023-04-04T09:37:31.082Z,48.94
2023-04-04T09:38:32.962Z,48.52
2023-04-04T09:39:35.219Z,49.17
2023-04-04T09:40:38.165Z,49.78
2023-04-04T09:41:40.597Z,48.19
2023-04-04T09:42:43.110Z,48.88
2023-04-04T09:43:45.567Z,49.00
2023-04-04T09:44:47.476Z,49.80
2023-04-04T09:45:50.917Z,48.10
2023-04-04T09:46:53.040Z,48.63
2023-04-04T09:47:55.488Z,49.28
2023-04-04T09:48:57.609Z,49.75
2023-04-04T09:50:00.182Z,49.51
2023-04-04T09:51:04.861Z,48.91
2023-04-04T09:52:17.848Z,48.71
2023-04-04T09:53:19.862Z,48.90
2023-04-04T09:54:29.409Z,48.15
2023-04-04T09:55:38.150Z,48.81
2023-04-04T09:56:43.531Z,48.40
2023-04-04T09:57:47.089Z,47.98
2023-04-04T09:59:00.315Z,47.90
2023-04-04T10:00:09.093Z,46.83
2023-04-04T10:01:11.056Z,47.58
2023-04-04T10:02:13.024Z,46.82
2023-04-04T10:03:18.888Z,48.97
2023-04-04T10:04:20.892Z,47.57
2023-04-04T10:05:23.460Z,47.93
2023-04-04T10:06:25.829Z,47.97
2023-04-04T10:07:29.395Z,47.45
2023-04-04T10:08:31.428Z,47.71
2023-04-04T10:09:37.437Z,48.35
2023-04-04T10:10:47.800Z,48.26
2023-04-04T10:12:08.848Z,49.43
2023-04-04T10:13:11.714Z,47.00
2023-04-04T10:14:13.510Z,48.19
2023-04-04T10:15:15.647Z,47.75
2023-04-04T10:16:19.073Z,49.30
2023-04-04T10:17:21.472Z,47.65
2023-04-04T10:18:27.634Z,46.95
2023-04-04T10:19:29.430Z,47.76
2023-04-04T10:20:32.343Z,47.64
2023-04-04T10:21:34.935Z,48.51
2023-04-04T10:22:37.275Z,47.51
2023-04-04T10:23:41.633Z,46.70
2023-04-04T10:24:43.420Z,44.13
2023-04-04T10:25:46.264Z,46.05
2023-04-04T10:26:48.079Z,46.65
2023-04-04T10:27:51.710Z,47.24
2023-04-04T10:28:53.790Z,47.05
2023-04-04T10:29:55.815Z,46.71
2023-04-04T10:31:06.740Z,45.35
2023-04-04T10:32:10.355Z,46.83
2023-04-04T10:33:17.787Z,46.64
2023-04-04T10:34:19.525Z,46.00
2023-04-04T10:35:22.968Z,43.66
2023-04-04T10:36:28.647Z,44.51
2023-04-04T10:37:34.988Z,46.45
2023-04-04T10:38:41.193Z,47.40
2023-04-04T10:39:47.408Z,45.88
2023-04-04T10:40:51.082Z,44.70
2023-04-04T10:41:54.119Z,44.69
2023-04-04T10:42:57.922Z,45.84
2023-04-04T10:44:01.315Z,43.70
2023-04-04T10:45:19.265Z,45.68
2023-04-04T10:46:31.150Z,45.95
2023-04-04T10:47:33.464Z,46.21
2023-04-04T10:48:36.592Z,46.42
2023-04-04T10:49:39.444Z,44.68
2023-04-04T10:50:42.227Z,46.65
2023-04-04T10:51:55.056Z,48.83
2023-04-04T10:53:01.305Z,47.45
2023-04-04T10:54:03.620Z,46.91
2023-04-04T10:55:06.842Z,45.22
2023-04-04T10:56:09.227Z,47.25
2023-04-04T10:57:12.014Z,49.82
2023-04-04T10:58:13.923Z,46.97
2023-04-04T10:59:20.058Z,44.91
2023-04-04T11:00:24.413Z,43.25
2023-04-04T11:01:46.351Z,42.89
2023-04-04T11:02:54.759Z,41.39
2023-04-04T11:04:16.262Z,45.54
2023-04-04T11:05:25.992Z,40.90
2023-04-04T11:06:47.650Z,42.77
2023-04-04T11:08:06.901Z,42.17
2023-04-04T11:09:11.793Z,43.40
2023-04-04T11:10:15.424Z,41.48
2023-04-04T11:11:22.556Z,43.03
2023-04-04T11:12:29.377Z,44.61
2023-04-04T11:13:38.034Z,41.84
2023-04-04T11:14:39.856Z,42.78
2023-04-04T11:15:53.670Z,44.49
2023-04-04T11:16:59.280Z,45.13
2023-04-04T11:18:17.344Z,45.55
2023-04-04T11:19:30.553Z,46.06
2023-04-04T11:20:34.747Z,43.16
2023-04-04T11:21:39.514Z,43.72
2023-04-04T11:22:42.884Z,45.14
2023-04-04T11:24:04.929Z,43.64
2023-04-04T11:25:28.027Z,46.43
2023-04-04T11:26:29.819Z,47.25
2023-04-04T11:27:31.580Z,44.48
2023-04-04T11:28:36.559Z,43.10
2023-04-04T11:29:53.022Z,44.50
2023-04-04T11:31:13.756Z,45.32
2023-04-04T11:32:35.985Z,43.78
2023-04-04T11:33:54.875Z,44.09
2023-04-04T11:34:57.047Z,43.59
2023-04-04T11:35:59.965Z,44.25
2023-04-04T11:37:15.821Z,44.65
2023-04-04T11:38:17.689Z,46.17
2023-04-04T11:39:27.546Z,44.74
2023-04-04T11:40:40.019Z,44.94
2023-04-04T11:41:55.865Z,44.54
2023-04-04T11:43:03.722Z,44.72
2023-04-04T11:44:09.518Z,47.67
2023-04-04T11:45:18.284Z,43.60
2023-04-04T11:46:20.549Z,45.96
2023-04-04T11:47:25.374Z,43.48
2023-04-04T11:48:27.267Z,41.73
2023-04-04T11:49:30.679Z,41.97
2023-04-04T11:50:36.548Z,43.82
2023-04-04T11:51:41.159Z,42.82
2023-04-04T11:52:46.453Z,43.41
2023-04-04T11:53:48.678Z,43.29
2023-04-04T11:54:50.397Z,44.62
2023-04-04T11:55:53.757Z,42.39
2023-04-04T11:56:55.586Z,41.61
2023-04-04T11:58:00.055Z,40.69
2023-04-04T12:00:09.267Z,42.26
2023-04-04T12:01:11.056Z,40.77
2023-04-04T12:02:13.594Z,44.13
2023-04-04T12:03:18.862Z,42.94
2023-04-04T12:04:21.567Z,42.28
2023-04-04T12:05:24.483Z,44.49
2023-04-04T12:06:27.551Z,44.80
2023-04-04T12:07:29.564Z,43.66
2023-04-04T12:08:32.085Z,43.41
2023-04-04T12:09:34.516Z,42.90
2023-04-04T12:10:37.118Z,45.92
2023-04-04T12:11:38.891Z,45.87
2023-04-04T12:12:41.945Z,43.64
2023-04-04T12:13:44.925Z,43.14
2023-04-04T12:14:47.922Z,41.15
2023-04-04T12:15:50.683Z,43.28
2023-04-04T12:16:55.066Z,43.82
2023-04-04T12:17:57.131Z,42.32
2023-04-04T12:19:01.509Z,42.22
2023-04-04T12:20:04.383Z,41.87
2023-04-04T12:21:07.789Z,44.48
2023-04-04T12:22:09.602Z,42.63
2023-04-04T12:23:11.374Z,41.46
2023-04-04T12:24:13.412Z,42.25
2023-04-04T12:25:15.412Z,42.35
2023-04-04T12:26:17.945Z,41.19
2023-04-04T12:27:19.907Z,39.23
2023-04-04T12:28:22.164Z,38.86
2023-04-04T12:29:25.305Z,40.16
2023-04-04T12:30:27.272Z,38.31
2023-04-04T12:31:30.118Z,38.92
2023-04-04T12:32:32.592Z,42.16
2023-04-04T12:33:34.801Z,38.87
2023-04-04T12:34:46.964Z,37.67
2023-04-04T12:35:52.871Z,38.65
2023-04-04T12:36:55.890Z,39.43
2023-04-04T12:37:58.934Z,38.78
2023-04-04T12:39:02.405Z,39.24
2023-04-04T12:40:05.209Z,37.70
2023-04-04T12:41:09.585Z,40.15
2023-04-04T12:42:12.467Z,39.52
2023-04-04T12:43:17.915Z,39.05
2023-04-04T12:44:36.212Z,39.82
2023-04-04T12:45:41.335Z,40.81
2023-04-04T12:46:45.283Z,39.48
2023-04-04T12:47:54.843Z,39.29
2023-04-04T12:48:57.928Z,40.07
2023-04-04T12:49:59.738Z,39.40
2023-04-04T12:51:01.729Z,38.90
2023-04-04T12:52:05.772Z,39.21
2023-04-04T12:53:23.898Z,40.13
2023-04-04T12:54:30.850Z,40.48
2023-04-04T12:55:32.763Z,41.51
2023-04-04T12:56:37.422Z,40.96
2023-04-04T12:57:39.690Z,38.82
2023-04-04T12:58:41.540Z,39.48
2023-04-04T12:59:46.034Z,41.05
2023-04-04T13:00:48.744Z,41.92
2023-04-04T13:01:50.663Z,40.96
2023-04-04T13:02:52.644Z,41.15
2023-04-04T13:03:54.667Z,43.84
2023-04-04T13:04:58.664Z,41.97
2023-04-04T13:06:01.462Z,41.50
2023-04-04T13:07:03.521Z,41.53
2023-04-04T13:08:06.786Z,38.56
2023-04-04T13:09:16.262Z,39.39
2023-04-04T13:10:20.772Z,38.20
2023-04-04T13:11:22.601Z,38.18
2023-04-04T13:12:25.210Z,39.42
2023-04-04T13:13:33.726Z,39.37
2023-04-04T13:14:53.907Z,38.29
2023-04-04T13:15:55.717Z,38.63
2023-04-04T13:17:08.452Z,38.57
2023-04-04T13:18:18.328Z,39.28
2023-04-04T13:19:20.287Z,39.47
2023-04-04T13:20:22.766Z,39.25
2023-04-04T13:21:24.609Z,39.90
2023-04-04T13:22:34.125Z,40.90
2023-04-04T13:23:37.841Z,40.29
2023-04-04T13:24:39.952Z,40.71
2023-04-04T13:25:43.460Z,38.64
2023-04-04T13:26:45.238Z,39.26
2023-04-04T13:27:46.992Z,38.31
2023-04-04T13:28:48.938Z,39.30
2023-04-04T13:29:50.748Z,39.53
2023-04-04T13:30:52.533Z,39.35
2023-04-04T13:31:54.316Z,40.72
2023-04-04T13:32:56.155Z,41.00
2023-04-04T13:33:57.937Z,40.13
2023-04-04T13:34:59.771Z,39.30
2023-04-04T13:36:01.795Z,38.54
2023-04-04T13:37:03.608Z,37.31